sensor_id;sensor_type;location;lat;lon;timestamp;P1;durP1;ratioP1;P2;durP2;ratioP2
74259;SDS011;62630;55.874;37.516;2023-04-01T00:00:18;9.00;;;5.43;;
74259;SDS011;62630;55.874;37.516;2023-04-01T00:02:44;12.38;;;6.18;;
74259;SDS011;62630;55.874;37.516;2023-04-01T00:05:10;12.75;;;6.57;;
74259;SDS011;62630;55.874;37.516;2023-04-01T00:07:37;9.73;;;5.63;;
74259;SDS011;62630;55.874;37.516;2023-04-01T00:10:07;8.38;;;5.32;;
74259;SDS011;62630;55.874;37.516;2023-04-01T00:12:34;9.73;;;5.22;;
74259;SDS011;62630;55.874;37.516;2023-04-01T00:15:01;8.48;;;5.18;;
74259;SDS011;62630;55.874;37.516;2023-04-01T00:17:28;11.30;;;5.95;;
74259;SDS011;62630;55.874;37.516;2023-04-01T00:19:56;10.20;;;6.18;;
74259;SDS011;62630;55.874;37.516;2023-04-01T00:22:23;10.45;;;5.22;;
74259;SDS011;62630;55.874;37.516;2023-04-01T00:24:49;10.32;;;5.80;;
74259;SDS011;62630;55.874;37.516;2023-04-01T00:27:15;9.35;;;6.07;;
74259;SDS011;62630;55.874;37.516;2023-04-01T00:29:42;9.40;;;5.43;;
74259;SDS011;62630;55.874;37.516;2023-04-01T00:32:08;10.27;;;5.72;;
74259;SDS011;62630;55.874;37.516;2023-04-01T00:34:34;8.02;;;5.28;;
74259;SDS011;62630;55.874;37.516;2023-04-01T00:37:00;10.13;;;5.70;;
74259;SDS011;62630;55.874;37.516;2023-04-01T00:39:25;9.20;;;5.40;;
74259;SDS011;62630;55.874;37.516;2023-04-01T00:41:54;9.20;;;5.68;;
74259;SDS011;62630;55.874;37.516;2023-04-01T00:44:22;10.65;;;6.10;;
74259;SDS011;62630;55.874;37.516;2023-04-01T00:46:49;11.57;;;6.25;;
74259;SDS011;62630;55.874;37.516;2023-04-01T00:49:15;9.90;;;4.93;;
74259;SDS011;62630;55.874;37.516;2023-04-01T00:51:44;9.02;;;5.60;;
74259;SDS011;62630;55.874;37.516;2023-04-01T00:54:13;10.02;;;6.10;;
74259;SDS011;62630;55.874;37.516;2023-04-01T00:59:16;9.40;;;4.80;;
74259;SDS011;62630;55.874;37.516;2023-04-01T01:01:46;11.70;;;5.70;;
74259;SDS011;62630;55.874;37.516;2023-04-01T01:04:31;9.50;;;5.22;;
74259;SDS011;62630;55.874;37.516;2023-04-01T01:12:46;10.35;;;5.85;;
74259;SDS011;62630;55.874;37.516;2023-04-01T01:18:39;8.52;;;5.55;;
74259;SDS011;62630;55.874;37.516;2023-04-01T01:24:39;9.60;;;5.72;;
74259;SDS011;62630;55.874;37.516;2023-04-01T01:27:16;11.50;;;5.82;;
74259;SDS011;62630;55.874;37.516;2023-04-01T01:32:26;10.05;;;5.80;;
74259;SDS011;62630;55.874;37.516;2023-04-01T01:35:21;10.75;;;6.00;;
74259;SDS011;62630;55.874;37.516;2023-04-01T01:37:55;10.52;;;5.82;;
74259;SDS011;62630;55.874;37.516;2023-04-01T01:41:14;12.15;;;5.80;;
74259;SDS011;62630;55.874;37.516;2023-04-01T01:43:51;13.40;;;6.28;;
74259;SDS011;62630;55.874;37.516;2023-04-01T01:46:22;10.50;;;5.97;;
74259;SDS011;62630;55.874;37.516;2023-04-01T01:48:51;11.35;;;5.88;;
74259;SDS011;62630;55.874;37.516;2023-04-01T01:54:14;8.63;;;5.55;;
74259;SDS011;62630;55.874;37.516;2023-04-01T01:56:45;10.40;;;6.65;;
74259;SDS011;62630;55.874;37.516;2023-04-01T01:59:15;12.10;;;6.57;;
74259;SDS011;62630;55.874;37.516;2023-04-01T02:01:43;8.68;;;6.03;;
74259;SDS011;62630;55.874;37.516;2023-04-01T02:04:18;10.85;;;6.30;;
74259;SDS011;62630;55.874;37.516;2023-04-01T02:06:47;13.82;;;6.82;;
74259;SDS011;62630;55.874;37.516;2023-04-01T02:09:21;10.15;;;6.18;;
74259;SDS011;62630;55.874;37.516;2023-04-01T02:11:48;10.18;;;6.03;;
74259;SDS011;62630;55.874;37.516;2023-04-01T02:17:10;9.68;;;5.57;;
74259;SDS011;62630;55.874;37.516;2023-04-01T02:22:31;10.98;;;6.15;;
74259;SDS011;62630;55.874;37.516;2023-04-01T02:25:00;13.50;;;6.38;;
74259;SDS011;62630;55.874;37.516;2023-04-01T02:27:30;15.68;;;6.55;;
74259;SDS011;62630;55.874;37.516;2023-04-01T02:29:56;9.45;;;6.47;;
74259;SDS011;62630;55.874;37.516;2023-04-01T02:32:23;11.10;;;6.30;;
74259;SDS011;62630;55.874;37.516;2023-04-01T02:34:49;11.38;;;7.00;;
74259;SDS011;62630;55.874;37.516;2023-04-01T02:37:16;12.02;;;7.10;;
74259;SDS011;62630;55.874;37.516;2023-04-01T02:39:43;11.70;;;6.65;;
74259;SDS011;62630;55.874;37.516;2023-04-01T02:42:08;12.75;;;7.63;;
74259;SDS011;62630;55.874;37.516;2023-04-01T02:44:34;9.93;;;6.47;;
74259;SDS011;62630;55.874;37.516;2023-04-01T02:47:00;10.73;;;6.68;;
74259;SDS011;62630;55.874;37.516;2023-04-01T02:49:26;11.07;;;7.00;;
74259;SDS011;62630;55.874;37.516;2023-04-01T02:51:51;11.63;;;7.28;;
74259;SDS011;62630;55.874;37.516;2023-04-01T02:54:20;10.93;;;6.53;;
74259;SDS011;62630;55.874;37.516;2023-04-01T02:56:45;12.10;;;7.22;;
74259;SDS011;62630;55.874;37.516;2023-04-01T02:59:11;11.23;;;6.93;;
74259;SDS011;62630;55.874;37.516;2023-04-01T03:01:38;12.43;;;6.82;;
74259;SDS011;62630;55.874;37.516;2023-04-01T03:04:09;9.13;;;6.55;;
74259;SDS011;62630;55.874;37.516;2023-04-01T03:06:38;9.63;;;6.43;;
74259;SDS011;62630;55.874;37.516;2023-04-01T03:09:03;10.02;;;6.03;;
74259;SDS011;62630;55.874;37.516;2023-04-01T03:11:29;10.35;;;5.68;;
74259;SDS011;62630;55.874;37.516;2023-04-01T03:13:54;12.18;;;6.57;;
74259;SDS011;62630;55.874;37.516;2023-04-01T03:16:20;13.77;;;6.97;;
74259;SDS011;62630;55.874;37.516;2023-04-01T03:18:45;10.82;;;6.40;;
74259;SDS011;62630;55.874;37.516;2023-04-01T03:21:15;12.82;;;6.43;;
74259;SDS011;62630;55.874;37.516;2023-04-01T03:23:43;11.48;;;6.30;;
74259;SDS011;62630;55.874;37.516;2023-04-01T03:26:08;14.27;;;7.15;;
74259;SDS011;62630;55.874;37.516;2023-04-01T03:28:34;10.30;;;6.78;;
74259;SDS011;62630;55.874;37.516;2023-04-01T03:31:00;15.00;;;6.97;;
74259;SDS011;62630;55.874;37.516;2023-04-01T03:33:25;12.35;;;7.55;;
74259;SDS011;62630;55.874;37.516;2023-04-01T03:35:51;14.25;;;7.40;;
74259;SDS011;62630;55.874;37.516;2023-04-01T03:38:17;11.88;;;6.80;;
74259;SDS011;62630;55.874;37.516;2023-04-01T03:40:43;11.80;;;7.10;;
74259;SDS011;62630;55.874;37.516;2023-04-01T03:43:09;12.05;;;7.03;;
74259;SDS011;62630;55.874;37.516;2023-04-01T03:45:36;10.52;;;6.38;;
74259;SDS011;62630;55.874;37.516;2023-04-01T03:48:08;15.50;;;6.90;;
74259;SDS011;62630;55.874;37.516;2023-04-01T03:50:34;10.80;;;6.47;;
74259;SDS011;62630;55.874;37.516;2023-04-01T03:53:00;12.10;;;6.80;;
74259;SDS011;62630;55.874;37.516;2023-04-01T03:55:25;13.38;;;7.18;;
74259;SDS011;62630;55.874;37.516;2023-04-01T03:57:51;12.98;;;7.13;;
74259;SDS011;62630;55.874;37.516;2023-04-01T04:00:17;12.00;;;6.90;;
74259;SDS011;62630;55.874;37.516;2023-04-01T04:02:42;12.23;;;6.80;;
74259;SDS011;62630;55.874;37.516;2023-04-01T04:05:08;12.38;;;6.53;;
74259;SDS011;62630;55.874;37.516;2023-04-01T04:07:34;10.70;;;6.40;;
74259;SDS011;62630;55.874;37.516;2023-04-01T04:10:00;11.15;;;7.05;;
74259;SDS011;62630;55.874;37.516;2023-04-01T04:12:26;13.65;;;7.00;;
74259;SDS011;62630;55.874;37.516;2023-04-01T04:14:51;11.98;;;6.78;;
74259;SDS011;62630;55.874;37.516;2023-04-01T04:17:17;9.60;;;6.38;;
74259;SDS011;62630;55.874;37.516;2023-04-01T04:19:42;11.95;;;6.28;;
74259;SDS011;62630;55.874;37.516;2023-04-01T04:22:08;10.95;;;6.57;;
74259;SDS011;62630;55.874;37.516;2023-04-01T04:24:34;9.30;;;5.90;;
74259;SDS011;62630;55.874;37.516;2023-04-01T04:27:00;12.90;;;6.78;;
74259;SDS011;62630;55.874;37.516;2023-04-01T04:29:26;11.10;;;6.25;;
74259;SDS011;62630;55.874;37.516;2023-04-01T04:31:51;12.65;;;7.00;;
74259;SDS011;62630;55.874;37.516;2023-04-01T04:34:17;11.25;;;7.40;;
74259;SDS011;62630;55.874;37.516;2023-04-01T04:36:43;14.70;;;6.90;;
74259;SDS011;62630;55.874;37.516;2023-04-01T04:39:09;12.43;;;6.53;;
74259;SDS011;62630;55.874;37.516;2023-04-01T04:41:36;11.55;;;6.35;;
74259;SDS011;62630;55.874;37.516;2023-04-01T04:44:03;12.93;;;6.85;;
74259;SDS011;62630;55.874;37.516;2023-04-01T04:46:29;12.60;;;7.43;;
74259;SDS011;62630;55.874;37.516;2023-04-01T04:48:55;14.38;;;7.80;;
74259;SDS011;62630;55.874;37.516;2023-04-01T04:51:21;11.15;;;6.63;;
74259;SDS011;62630;55.874;37.516;2023-04-01T04:53:47;16.48;;;6.80;;
74259;SDS011;62630;55.874;37.516;2023-04-01T04:56:17;14.85;;;7.47;;
74259;SDS011;62630;55.874;37.516;2023-04-01T04:58:43;13.43;;;6.93;;
74259;SDS011;62630;55.874;37.516;2023-04-01T05:01:09;13.85;;;7.60;;
74259;SDS011;62630;55.874;37.516;2023-04-01T05:03:37;13.10;;;7.63;;
74259;SDS011;62630;55.874;37.516;2023-04-01T05:06:07;14.45;;;6.88;;
74259;SDS011;62630;55.874;37.516;2023-04-01T05:08:34;15.95;;;7.15;;
74259;SDS011;62630;55.874;37.516;2023-04-01T05:11:00;17.05;;;7.65;;
74259;SDS011;62630;55.874;37.516;2023-04-01T05:13:27;11.90;;;7.30;;
74259;SDS011;62630;55.874;37.516;2023-04-01T05:15:53;15.23;;;7.22;;
74259;SDS011;62630;55.874;37.516;2023-04-01T05:18:19;11.40;;;6.82;;
74259;SDS011;62630;55.874;37.516;2023-04-01T05:20:46;13.20;;;6.95;;
74259;SDS011;62630;55.874;37.516;2023-04-01T05:23:15;15.98;;;7.75;;
74259;SDS011;62630;55.874;37.516;2023-04-01T05:25:41;12.20;;;7.43;;
74259;SDS011;62630;55.874;37.516;2023-04-01T05:28:08;13.52;;;7.45;;
74259;SDS011;62630;55.874;37.516;2023-04-01T05:30:33;12.55;;;6.78;;
74259;SDS011;62630;55.874;37.516;2023-04-01T05:32:59;11.68;;;6.93;;
74259;SDS011;62630;55.874;37.516;2023-04-01T05:35:25;11.32;;;7.15;;
74259;SDS011;62630;55.874;37.516;2023-04-01T05:37:51;14.05;;;7.10;;
74259;SDS011;62630;55.874;37.516;2023-04-01T05:40:16;14.27;;;7.20;;
74259;SDS011;62630;55.874;37.516;2023-04-01T05:42:42;10.75;;;6.57;;
74259;SDS011;62630;55.874;37.516;2023-04-01T05:45:07;13.15;;;6.95;;
74259;SDS011;62630;55.874;37.516;2023-04-01T05:47:34;11.88;;;6.55;;
74259;SDS011;62630;55.874;37.516;2023-04-01T05:49:59;13.35;;;7.93;;
74259;SDS011;62630;55.874;37.516;2023-04-01T05:52:25;12.90;;;7.18;;
74259;SDS011;62630;55.874;37.516;2023-04-01T05:54:50;10.88;;;6.93;;
74259;SDS011;62630;55.874;37.516;2023-04-01T05:57:17;11.25;;;7.00;;
74259;SDS011;62630;55.874;37.516;2023-04-01T05:59:43;17.40;;;7.95;;
74259;SDS011;62630;55.874;37.516;2023-04-01T06:02:09;14.43;;;7.63;;
74259;SDS011;62630;55.874;37.516;2023-04-01T06:04:37;12.40;;;7.13;;
74259;SDS011;62630;55.874;37.516;2023-04-01T06:07:11;14.85;;;7.30;;
74259;SDS011;62630;55.874;37.516;2023-04-01T06:09:41;12.77;;;7.63;;
74259;SDS011;62630;55.874;37.516;2023-04-01T06:14:38;15.45;;;8.13;;
74259;SDS011;62630;55.874;37.516;2023-04-01T06:17:19;10.85;;;7.15;;
74259;SDS011;62630;55.874;37.516;2023-04-01T06:23:44;10.93;;;6.63;;
74259;SDS011;62630;55.874;37.516;2023-04-01T06:26:45;15.70;;;8.50;;
74259;SDS011;62630;55.874;37.516;2023-04-01T06:29:53;13.25;;;7.03;;
74259;SDS011;62630;55.874;37.516;2023-04-01T06:35:31;14.90;;;7.00;;
74259;SDS011;62630;55.874;37.516;2023-04-01T06:40:44;11.13;;;6.72;;
74259;SDS011;62630;55.874;37.516;2023-04-01T06:54:31;10.82;;;6.32;;
74259;SDS011;62630;55.874;37.516;2023-04-01T06:57:03;9.73;;;6.15;;
74259;SDS011;62630;55.874;37.516;2023-04-01T06:59:43;10.52;;;6.43;;
74259;SDS011;62630;55.874;37.516;2023-04-01T07:04:44;9.52;;;5.30;;
74259;SDS011;62630;55.874;37.516;2023-04-01T07:07:15;9.45;;;6.13;;
74259;SDS011;62630;55.874;37.516;2023-04-01T07:09:52;10.10;;;5.93;;
74259;SDS011;62630;55.874;37.516;2023-04-01T07:15:30;10.02;;;6.28;;
74259;SDS011;62630;55.874;37.516;2023-04-01T07:18:03;10.07;;;6.93;;
74259;SDS011;62630;55.874;37.516;2023-04-01T07:20:35;11.13;;;6.78;;
74259;SDS011;62630;55.874;37.516;2023-04-01T07:23:03;11.00;;;6.70;;
74259;SDS011;62630;55.874;37.516;2023-04-01T07:25:34;14.48;;;8.02;;
74259;SDS011;62630;55.874;37.516;2023-04-01T07:28:05;11.85;;;7.65;;
74259;SDS011;62630;55.874;37.516;2023-04-01T07:39:19;12.60;;;7.40;;
74259;SDS011;62630;55.874;37.516;2023-04-01T07:49:52;10.77;;;7.55;;
74259;SDS011;62630;55.874;37.516;2023-04-01T08:00:34;16.05;;;8.38;;
74259;SDS011;62630;55.874;37.516;2023-04-01T08:05:55;12.38;;;7.68;;
74259;SDS011;62630;55.874;37.516;2023-04-01T08:22:29;15.57;;;8.10;;
74259;SDS011;62630;55.874;37.516;2023-04-01T08:25:17;17.60;;;8.40;;
74259;SDS011;62630;55.874;37.516;2023-04-01T08:31:03;17.83;;;8.73;;
74259;SDS011;62630;55.874;37.516;2023-04-01T08:33:34;17.70;;;8.80;;
74259;SDS011;62630;55.874;37.516;2023-04-01T08:36:19;18.77;;;8.80;;
74259;SDS011;62630;55.874;37.516;2023-04-01T08:39:07;18.73;;;7.25;;
74259;SDS011;62630;55.874;37.516;2023-04-01T08:41:44;15.73;;;7.82;;
74259;SDS011;62630;55.874;37.516;2023-04-01T09:03:51;17.50;;;8.63;;
74259;SDS011;62630;55.874;37.516;2023-04-01T09:25:23;15.45;;;6.78;;
74259;SDS011;62630;55.874;37.516;2023-04-01T09:33:46;17.73;;;6.72;;
74259;SDS011;62630;55.874;37.516;2023-04-01T09:37:07;13.80;;;7.32;;
74259;SDS011;62630;55.874;37.516;2023-04-01T09:39:46;15.30;;;7.18;;
74259;SDS011;62630;55.874;37.516;2023-04-01T09:42:43;15.52;;;7.18;;
74259;SDS011;62630;55.874;37.516;2023-04-01T09:45:31;14.65;;;6.72;;
74259;SDS011;62630;55.874;37.516;2023-04-01T09:53:57;12.52;;;6.28;;
74259;SDS011;62630;55.874;37.516;2023-04-01T10:25:03;14.75;;;6.05;;
74259;SDS011;62630;55.874;37.516;2023-04-01T10:44:45;13.27;;;6.32;;
74259;SDS011;62630;55.874;37.516;2023-04-01T10:47:28;14.40;;;5.78;;
74259;SDS011;62630;55.874;37.516;2023-04-01T11:07:46;11.25;;;4.78;;
74259;SDS011;62630;55.874;37.516;2023-04-01T11:11:39;7.43;;;4.05;;
74259;SDS011;62630;55.874;37.516;2023-04-01T11:33:17;11.63;;;4.07;;
74259;SDS011;62630;55.874;37.516;2023-04-01T11:38:44;10.18;;;3.72;;
74259;SDS011;62630;55.874;37.516;2023-04-01T11:44:16;8.43;;;4.03;;
74259;SDS011;62630;55.874;37.516;2023-04-01T11:58:19;11.68;;;4.03;;
74259;SDS011;62630;55.874;37.516;2023-04-01T12:14:57;16.30;;;3.97;;
74259;SDS011;62630;55.874;37.516;2023-04-01T12:17:39;12.88;;;3.38;;
74259;SDS011;62630;55.874;37.516;2023-04-01T12:22:56;7.15;;;3.70;;
74259;SDS011;62630;55.874;37.516;2023-04-01T12:29:11;6.60;;;3.25;;
74259;SDS011;62630;55.874;37.516;2023-04-01T12:37:00;9.75;;;3.40;;
74259;SDS011;62630;55.874;37.516;2023-04-01T12:39:52;12.60;;;3.55;;
74259;SDS011;62630;55.874;37.516;2023-04-01T12:42:31;13.40;;;3.85;;
74259;SDS011;62630;55.874;37.516;2023-04-01T12:45:12;10.52;;;4.05;;
74259;SDS011;62630;55.874;37.516;2023-04-01T12:47:56;10.70;;;3.85;;
74259;SDS011;62630;55.874;37.516;2023-04-01T12:55:53;9.15;;;3.95;;
74259;SDS011;62630;55.874;37.516;2023-04-01T13:06:40;14.15;;;4.20;;
74259;SDS011;62630;55.874;37.516;2023-04-01T13:12:22;29.95;;;6.10;;
74259;SDS011;62630;55.874;37.516;2023-04-01T13:15:10;10.85;;;4.40;;
74259;SDS011;62630;55.874;37.516;2023-04-01T13:17:53;9.27;;;4.07;;
74259;SDS011;62630;55.874;37.516;2023-04-01T13:23:59;13.68;;;4.00;;
74259;SDS011;62630;55.874;37.516;2023-04-01T13:27:20;10.27;;;3.45;;
74259;SDS011;62630;55.874;37.516;2023-04-01T13:35:31;14.00;;;3.78;;
74259;SDS011;62630;55.874;37.516;2023-04-01T13:38:33;8.13;;;5.18;;
74259;SDS011;62630;55.874;37.516;2023-04-01T13:41:43;7.65;;;3.92;;
74259;SDS011;62630;55.874;37.516;2023-04-01T13:44:20;9.73;;;3.83;;
74259;SDS011;62630;55.874;37.516;2023-04-01T13:53:41;10.13;;;4.47;;
74259;SDS011;62630;55.874;37.516;2023-04-01T13:58:46;7.13;;;3.88;;
74259;SDS011;62630;55.874;37.516;2023-04-01T14:01:23;10.93;;;4.63;;
74259;SDS011;62630;55.874;37.516;2023-04-01T14:04:03;10.35;;;4.75;;
74259;SDS011;62630;55.874;37.516;2023-04-01T14:06:57;16.30;;;5.78;;
74259;SDS011;62630;55.874;37.516;2023-04-01T14:09:29;16.27;;;5.05;;
74259;SDS011;62630;55.874;37.516;2023-04-01T14:17:43;18.90;;;6.00;;
74259;SDS011;62630;55.874;37.516;2023-04-01T14:20:20;24.83;;;5.55;;
74259;SDS011;62630;55.874;37.516;2023-04-01T14:50:40;7.50;;;4.78;;
74259;SDS011;62630;55.874;37.516;2023-04-01T14:53:16;9.57;;;5.32;;
74259;SDS011;62630;55.874;37.516;2023-04-01T14:55:57;9.15;;;4.90;;
74259;SDS011;62630;55.874;37.516;2023-04-01T14:58:38;11.07;;;5.65;;
74259;SDS011;62630;55.874;37.516;2023-04-01T15:01:32;9.73;;;4.90;;
74259;SDS011;62630;55.874;37.516;2023-04-01T15:24:05;10.20;;;5.47;;
74259;SDS011;62630;55.874;37.516;2023-04-01T15:37:59;14.98;;;5.65;;
74259;SDS011;62630;55.874;37.516;2023-04-01T15:40:47;8.50;;;5.10;;
74259;SDS011;62630;55.874;37.516;2023-04-01T15:43:27;10.40;;;5.70;;
74259;SDS011;62630;55.874;37.516;2023-04-01T15:49:00;11.75;;;6.00;;
74259;SDS011;62630;55.874;37.516;2023-04-01T15:57:45;10.88;;;5.88;;
74259;SDS011;62630;55.874;37.516;2023-04-01T16:08:37;10.73;;;6.13;;
74259;SDS011;62630;55.874;37.516;2023-04-01T16:11:39;12.48;;;7.20;;
74259;SDS011;62630;55.874;37.516;2023-04-01T16:16:58;10.65;;;7.45;;
74259;SDS011;62630;55.874;37.516;2023-04-01T16:19:37;13.93;;;6.65;;
74259;SDS011;62630;55.874;37.516;2023-04-01T16:30:46;9.75;;;6.25;;
74259;SDS011;62630;55.874;37.516;2023-04-01T16:41:34;14.85;;;8.18;;
74259;SDS011;62630;55.874;37.516;2023-04-01T16:46:43;13.55;;;6.68;;
74259;SDS011;62630;55.874;37.516;2023-04-01T16:54:26;15.75;;;7.90;;
74259;SDS011;62630;55.874;37.516;2023-04-01T16:57:02;12.02;;;7.10;;
74259;SDS011;62630;55.874;37.516;2023-04-01T16:59:44;13.50;;;7.32;;
74259;SDS011;62630;55.874;37.516;2023-04-01T17:02:30;12.55;;;7.55;;
74259;SDS011;62630;55.874;37.516;2023-04-01T17:05:08;14.20;;;7.55;;
74259;SDS011;62630;55.874;37.516;2023-04-01T17:18:13;11.68;;;6.65;;
74259;SDS011;62630;55.874;37.516;2023-04-01T17:20:43;16.70;;;8.75;;
74259;SDS011;62630;55.874;37.516;2023-04-01T17:23:20;10.98;;;6.55;;
74259;SDS011;62630;55.874;37.516;2023-04-01T17:26:04;13.00;;;6.43;;
74259;SDS011;62630;55.874;37.516;2023-04-01T17:28:47;9.80;;;5.35;;
74259;SDS011;62630;55.874;37.516;2023-04-01T17:44:59;9.63;;;5.88;;
74259;SDS011;62630;55.874;37.516;2023-04-01T18:04:47;13.05;;;6.70;;
74259;SDS011;62630;55.874;37.516;2023-04-01T18:10:08;12.23;;;6.38;;
74259;SDS011;62630;55.874;37.516;2023-04-01T18:18:19;10.05;;;5.63;;
74259;SDS011;62630;55.874;37.516;2023-04-01T18:20:54;11.73;;;6.60;;
74259;SDS011;62630;55.874;37.516;2023-04-01T18:23:31;15.75;;;6.85;;
74259;SDS011;62630;55.874;37.516;2023-04-01T18:26:05;10.77;;;5.80;;
74259;SDS011;62630;55.874;37.516;2023-04-01T18:28:38;10.43;;;6.78;;
74259;SDS011;62630;55.874;37.516;2023-04-01T18:37:12;12.32;;;6.47;;
74259;SDS011;62630;55.874;37.516;2023-04-01T18:39:53;12.00;;;6.65;;
74259;SDS011;62630;55.874;37.516;2023-04-01T18:45:03;11.98;;;6.78;;
74259;SDS011;62630;55.874;37.516;2023-04-01T18:48:07;11.25;;;6.50;;
74259;SDS011;62630;55.874;37.516;2023-04-01T18:50:56;10.73;;;6.53;;
74259;SDS011;62630;55.874;37.516;2023-04-01T18:56:02;11.75;;;7.13;;
74259;SDS011;62630;55.874;37.516;2023-04-01T19:01:14;12.43;;;6.93;;
74259;SDS011;62630;55.874;37.516;2023-04-01T19:07:00;12.00;;;6.18;;
74259;SDS011;62630;55.874;37.516;2023-04-01T19:09:46;9.75;;;6.50;;
74259;SDS011;62630;55.874;37.516;2023-04-01T19:25:57;14.23;;;7.20;;
74259;SDS011;62630;55.874;37.516;2023-04-01T19:31:11;10.85;;;7.18;;
74259;SDS011;62630;55.874;37.516;2023-04-01T19:36:50;12.40;;;7.05;;
74259;SDS011;62630;55.874;37.516;2023-04-01T19:52:48;14.95;;;8.05;;
74259;SDS011;62630;55.874;37.516;2023-04-01T19:55:33;14.23;;;7.10;;
74259;SDS011;62630;55.874;37.516;2023-04-01T20:08:43;12.40;;;7.18;;
74259;SDS011;62630;55.874;37.516;2023-04-01T20:19:44;13.25;;;7.25;;
74259;SDS011;62630;55.874;37.516;2023-04-01T20:24:44;15.52;;;8.35;;
74259;SDS011;62630;55.874;37.516;2023-04-01T20:27:23;17.35;;;7.63;;
74259;SDS011;62630;55.874;37.516;2023-04-01T20:35:23;12.35;;;7.82;;
74259;SDS011;62630;55.874;37.516;2023-04-01T20:43:52;14.52;;;7.47;;
74259;SDS011;62630;55.874;37.516;2023-04-01T20:46:33;14.80;;;8.10;;
74259;SDS011;62630;55.874;37.516;2023-04-01T20:49:07;14.00;;;8.45;;
74259;SDS011;62630;55.874;37.516;2023-04-01T20:51:39;18.30;;;8.65;;
74259;SDS011;62630;55.874;37.516;2023-04-01T21:05:19;19.35;;;8.45;;
74259;SDS011;62630;55.874;37.516;2023-04-01T21:08:08;17.15;;;8.52;;
74259;SDS011;62630;55.874;37.516;2023-04-01T21:27:22;18.95;;;7.60;;
74259;SDS011;62630;55.874;37.516;2023-04-01T21:32:41;13.68;;;8.30;;
74259;SDS011;62630;55.874;37.516;2023-04-01T21:35:35;12.70;;;8.02;;
74259;SDS011;62630;55.874;37.516;2023-04-01T21:38:09;14.23;;;8.00;;
74259;SDS011;62630;55.874;37.516;2023-04-01T21:55:03;15.32;;;8.30;;
74259;SDS011;62630;55.874;37.516;2023-04-01T21:57:48;12.63;;;7.03;;
74259;SDS011;62630;55.874;37.516;2023-04-01T22:05:24;14.93;;;7.80;;
74259;SDS011;62630;55.874;37.516;2023-04-01T22:25:50;13.27;;;7.18;;
74259;SDS011;62630;55.874;37.516;2023-04-01T22:31:36;14.73;;;8.20;;
74259;SDS011;62630;55.874;37.516;2023-04-01T22:39:48;17.33;;;8.85;;
74259;SDS011;62630;55.874;37.516;2023-04-01T22:42:43;16.30;;;8.05;;
74259;SDS011;62630;55.874;37.516;2023-04-01T22:53:22;15.90;;;8.13;;
74259;SDS011;62630;55.874;37.516;2023-04-01T22:55:51;17.58;;;8.93;;
74259;SDS011;62630;55.874;37.516;2023-04-01T22:58:25;17.70;;;9.02;;
74259;SDS011;62630;55.874;37.516;2023-04-01T23:00:59;15.07;;;8.65;;
74259;SDS011;62630;55.874;37.516;2023-04-01T23:03:32;15.30;;;9.68;;
74259;SDS011;62630;55.874;37.516;2023-04-01T23:06:06;17.40;;;8.95;;
74259;SDS011;62630;55.874;37.516;2023-04-01T23:11:34;16.35;;;9.00;;
74259;SDS011;62630;55.874;37.516;2023-04-01T23:16:47;15.43;;;8.32;;
74259;SDS011;62630;55.874;37.516;2023-04-01T23:19:21;17.48;;;9.45;;
74259;SDS011;62630;55.874;37.516;2023-04-01T23:22:02;18.00;;;8.90;;
74259;SDS011;62630;55.874;37.516;2023-04-01T23:27:23;19.23;;;9.45;;
74259;SDS011;62630;55.874;37.516;2023-04-01T23:29:55;19.65;;;11.80;;
74259;SDS011;62630;55.874;37.516;2023-04-01T23:32:24;21.13;;;10.63;;
74259;SDS011;62630;55.874;37.516;2023-04-01T23:34:55;19.88;;;10.27;;
74259;SDS011;62630;55.874;37.516;2023-04-01T23:37:23;18.38;;;9.30;;
74259;SDS011;62630;55.874;37.516;2023-04-01T23:39:53;17.02;;;9.57;;
74259;SDS011;62630;55.874;37.516;2023-04-01T23:42:25;17.83;;;9.50;;
74259;SDS011;62630;55.874;37.516;2023-04-01T23:45:00;18.45;;;9.25;;
74259;SDS011;62630;55.874;37.516;2023-04-01T23:47:35;20.00;;;9.60;;
74259;SDS011;62630;55.874;37.516;2023-04-01T23:50:14;15.13;;;8.15;;
74259;SDS011;62630;55.874;37.516;2023-04-01T23:52:44;14.35;;;8.25;;
74259;SDS011;62630;55.874;37.516;2023-04-01T23:57:38;15.85;;;9.57;;
